Time;durP1;ratioP1;P1;durP2;ratioP2;P2;SDS_P1;SDS_P2;PMS_P1;PMS_P2;Temp;Humidity;BMP_temperature;BMP_pressure;BME280_temperature;BME280_humidity;BME280_pressure;Samples;Min_cycle;Max_cycle;Signal;HPM_P1;HPM_P2
2023/06/03 00:01:27;;;;;;;6.63;5.10;;;13.80;99.90;;;;;;4995038;28;20204;-77
2023/06/03 00:03:54;;;;;;;8.53;5.40;;;13.70;99.90;;;;;;4989337;28;20621;-77
2023/06/03 00:06:21;;;;;;;5.90;4.90;;;13.70;99.90;;;;;;4994323;28;20198;-77
2023/06/03 00:08:49;;;;;;;6.97;5.00;;;13.60;99.90;;;;;;4994813;28;20210;-76
2023/06/03 00:11:16;;;;;;;6.73;5.13;;;13.60;99.90;;;;;;4995668;28;20269;-76
2023/06/03 00:13:43;;;;;;;8.97;5.33;;;13.60;99.90;;;;;;4990859;28;20308;-77
2023/06/03 00:16:09;;;;;;;7.37;4.70;;;13.60;99.90;;;;;;4995495;28;20260;-77
2023/06/03 00:18:36;;;;;;;7.57;4.87;;;13.50;99.90;;;;;;4986508;28;20208;-76
2023/06/03 00:21:04;;;;;;;7.80;5.37;;;13.50;99.90;;;;;;4990784;28;20687;-77
2023/06/03 00:23:32;;;;;;;6.93;5.10;;;13.50;99.90;;;;;;4994165;28;20221;-76
2023/06/03 00:26:01;;;;;;;6.57;4.90;;;13.40;99.90;;;;;;4993478;28;20209;-76
2023/06/03 00:28:28;;;;;;;6.33;4.93;;;13.40;99.90;;;;;;4994425;28;20197;-77
2023/06/03 00:30:54;;;;;;;9.77;5.27;;;13.40;99.90;;;;;;4994357;28;20201;-76
2023/06/03 00:33:21;;;;;;;6.30;5.50;;;13.30;99.90;;;;;;4994036;28;20637;-76
2023/06/03 00:35:48;;;;;;;8.63;5.33;;;13.30;99.90;;;;;;4994024;28;20201;-77
2023/06/03 00:38:16;;;;;;;6.80;5.10;;;13.30;99.90;;;;;;4993922;28;20656;-76
2023/06/03 00:40:43;;;;;;;6.23;5.63;;;13.20;99.90;;;;;;4994243;28;20222;-77
2023/06/03 00:43:11;;;;;;;9.33;5.63;;;13.10;99.90;;;;;;4986833;28;20708;-76
2023/06/03 00:45:38;;;;;;;6.03;5.27;;;13.10;99.90;;;;;;4993553;28;20202;-77
2023/06/03 00:48:05;;;;;;;9.70;6.73;;;13.00;99.90;;;;;;4989624;28;20253;-76
2023/06/03 00:50:32;;;;;;;8.67;7.03;;;13.00;99.90;;;;;;4994001;28;20202;-76
2023/06/03 00:53:02;;;;;;;8.23;6.50;;;12.90;99.90;;;;;;4993609;28;20225;-77
2023/06/03 00:55:28;;;;;;;8.33;7.23;;;12.80;99.90;;;;;;4987521;28;20209;-76
2023/06/03 00:57:56;;;;;;;11.37;7.07;;;12.80;99.90;;;;;;4989128;28;20220;-76
2023/06/03 01:00:24;;;;;;;10.10;7.43;;;12.80;99.90;;;;;;4990855;28;20193;-77
2023/06/03 01:02:50;;;;;;;11.47;7.20;;;12.70;99.90;;;;;;4989739;28;20216;-77
2023/06/03 01:05:17;;;;;;;11.10;7.03;;;12.70;99.90;;;;;;4999226;28;20250;-76
2023/06/03 01:07:56;;;;;;;9.73;7.30;;;12.60;99.90;;;;;;4994734;28;20197;-77
2023/06/03 01:10:27;;;;;;;9.83;6.97;;;12.60;99.90;;;;;;4993289;28;20300;-77
2023/06/03 01:13:01;;;;;;;7.77;6.83;;;12.50;99.90;;;;;;4998419;28;20616;-75
2023/06/03 01:15:33;;;;;;;10.77;7.33;;;12.50;99.90;;;;;;4985773;28;20209;-75
2023/06/03 01:18:03;;;;;;;13.57;6.77;;;12.50;99.90;;;;;;4994853;28;20228;-76
2023/06/03 01:20:30;;;;;;;9.83;6.53;;;12.40;99.90;;;;;;4987962;28;20201;-77
2023/06/03 01:23:11;;;;;;;10.10;6.53;;;12.40;99.90;;;;;;4994452;28;20221;-76
2023/06/03 01:25:40;;;;;;;7.70;5.90;;;12.40;99.90;;;;;;4984341;28;20205;-77
2023/06/03 01:28:07;;;;;;;8.57;5.53;;;12.30;99.90;;;;;;4992750;28;20232;-76
2023/06/03 01:30:35;;;;;;;8.13;6.23;;;12.30;99.90;;;;;;4993341;28;20201;-77
2023/06/03 01:33:04;;;;;;;8.93;6.70;;;12.20;99.90;;;;;;4993231;28;20703;-77
2023/06/03 01:35:33;;;;;;;8.23;6.40;;;12.20;99.90;;;;;;4993121;28;20208;-76
2023/06/03 01:38:00;;;;;;;8.17;6.17;;;12.20;99.90;;;;;;4994462;28;20208;-77
2023/06/03 01:40:29;;;;;;;9.17;5.87;;;12.20;99.90;;;;;;4993077;28;20197;-77
2023/06/03 01:42:56;;;;;;;7.13;5.57;;;12.30;99.90;;;;;;4992847;28;20576;-77
2023/06/03 01:45:23;;;;;;;9.27;5.50;;;12.20;99.90;;;;;;4993927;28;20268;-76
2023/06/03 01:47:50;;;;;;;6.93;5.70;;;12.20;99.90;;;;;;4992811;28;20193;-77
2023/06/03 01:50:18;;;;;;;6.17;5.33;;;12.10;99.90;;;;;;4989760;28;20205;-76
2023/06/03 01:52:45;;;;;;;6.10;5.40;;;12.10;99.90;;;;;;4987366;28;20225;-77
2023/06/03 01:55:12;;;;;;;8.97;5.90;;;12.10;99.90;;;;;;4993769;28;20233;-77
2023/06/03 01:57:40;;;;;;;8.07;5.40;;;12.10;99.90;;;;;;4988590;28;20198;-76
2023/06/03 02:00:09;;;;;;;8.57;5.20;;;12.10;99.90;;;;;;4990289;28;20197;-77
2023/06/03 02:02:41;;;;;;;10.73;6.27;;;12.10;99.90;;;;;;4988166;28;20223;-77
2023/06/03 02:05:10;;;;;;;8.27;5.73;;;12.10;99.90;;;;;;4992260;28;20231;-77
2023/06/03 02:07:37;;;;;;;8.40;5.80;;;12.00;99.90;;;;;;4992564;28;20204;-76
2023/06/03 02:10:04;;;;;;;10.80;6.00;;;12.00;99.90;;;;;;4991846;28;20207;-77
2023/06/03 02:12:31;;;;;;;8.10;6.27;;;11.90;99.90;;;;;;4990072;28;20316;-76
2023/06/03 02:14:59;;;;;;;7.60;6.80;;;11.90;99.90;;;;;;4993450;28;20213;-76
2023/06/03 02:17:28;;;;;;;10.43;7.20;;;11.90;99.90;;;;;;4992066;28;20247;-77
2023/06/03 02:19:55;;;;;;;10.67;7.73;;;11.80;99.90;;;;;;4992421;28;20202;-77
2023/06/03 02:22:22;;;;;;;9.97;6.53;;;11.80;99.90;;;;;;4991236;28;20643;-76
2023/06/03 02:24:50;;;;;;;11.33;6.33;;;11.70;99.90;;;;;;4992919;28;20207;-77
2023/06/03 02:27:19;;;;;;;9.13;6.17;;;11.70;99.90;;;;;;4992176;28;20196;-76
2023/06/03 02:29:50;;;;;;;8.90;5.70;;;11.70;99.90;;;;;;4986142;28;20207;-75
2023/06/03 02:32:19;;;;;;;10.07;6.27;;;11.70;99.90;;;;;;4991830;28;20220;-77
2023/06/03 02:34:46;;;;;;;8.47;5.93;;;11.60;99.90;;;;;;4987047;28;20732;-77
2023/06/03 02:37:15;;;;;;;10.13;6.50;;;11.60;99.90;;;;;;4990795;28;20238;-76
2023/06/03 02:39:43;;;;;;;7.70;6.50;;;11.50;99.90;;;;;;4992061;28;20203;-76
2023/06/03 02:42:10;;;;;;;11.70;8.17;;;11.50;99.90;;;;;;4991891;28;20620;-77
2023/06/03 02:44:37;;;;;;;9.80;6.37;;;11.50;99.90;;;;;;4991836;28;20226;-76
2023/06/03 02:47:05;;;;;;;12.23;8.37;;;11.40;99.90;;;;;;4988972;28;20211;-78
2023/06/03 02:49:36;;;;;;;8.37;7.10;;;11.40;99.90;;;;;;4990709;28;20207;-78
2023/06/03 02:52:03;;;;;;;11.10;7.27;;;11.40;99.90;;;;;;4991077;28;20225;-79
2023/06/03 02:54:30;;;;;;;9.63;6.73;;;11.40;99.90;;;;;;4993685;28;20215;-78
2023/06/03 02:56:57;;;;;;;10.90;6.97;;;11.40;99.90;;;;;;4996549;28;20201;-78
2023/06/03 02:59:24;;;;;;;10.13;7.57;;;11.30;99.90;;;;;;4996762;28;20278;-79
2023/06/03 03:01:51;;;;;;;9.40;7.07;;;11.30;99.90;;;;;;4996391;28;20203;-80
2023/06/03 03:04:18;;;;;;;9.97;6.97;;;11.30;99.90;;;;;;4997917;28;20527;-80
2023/06/03 03:06:49;;;;;;;10.33;7.67;;;11.30;99.90;;;;;;4999989;28;20267;-77
2023/06/03 03:09:16;;;;;;;9.20;7.23;;;11.30;99.90;;;;;;4988520;28;20678;-79
2023/06/03 03:11:45;;;;;;;10.90;7.03;;;11.30;99.90;;;;;;4991043;28;20290;-78
2023/06/03 03:14:15;;;;;;;9.73;6.67;;;11.20;99.90;;;;;;4988857;28;20660;-78
2023/06/03 03:16:41;;;;;;;9.87;5.93;;;11.20;99.90;;;;;;4996138;28;20211;-79
2023/06/03 03:19:09;;;;;;;8.93;6.20;;;11.10;99.90;;;;;;4995951;28;20264;-78
2023/06/03 03:21:38;;;;;;;10.93;6.13;;;11.10;99.90;;;;;;4989215;28;20623;-77
2023/06/03 03:24:11;;;;;;;11.27;6.60;;;11.00;99.90;;;;;;4994202;28;20219;-78
2023/06/03 03:26:41;;;;;;;9.73;6.20;;;11.10;99.90;;;;;;4995148;28;20206;-79
2023/06/03 03:29:08;;;;;;;12.27;6.43;;;11.00;99.90;;;;;;4993701;28;20209;-78
2023/06/03 03:31:35;;;;;;;10.57;7.90;;;11.00;99.90;;;;;;4995551;28;20199;-78
2023/06/03 03:34:03;;;;;;;10.60;7.97;;;11.00;99.90;;;;;;4998723;28;20222;-79
2023/06/03 03:36:36;;;;;;;11.23;8.53;;;11.00;99.90;;;;;;4994377;28;20211;-79
2023/06/03 03:39:07;;;;;;;9.60;8.37;;;11.00;99.90;;;;;;4997917;28;20206;-78
2023/06/03 03:41:44;;;;;;;10.80;7.77;;;11.00;99.90;;;;;;5000480;28;20191;-80
2023/06/03 03:44:13;;;;;;;9.00;7.53;;;11.10;99.90;;;;;;4995205;28;20224;-80
2023/06/03 03:46:41;;;;;;;9.80;7.07;;;11.10;99.90;;;;;;4999909;28;20279;-80
2023/06/03 03:49:13;;;;;;;8.57;7.33;;;11.10;99.90;;;;;;5005964;28;20425;-80
2023/06/03 03:51:39;;;;;;;8.83;7.10;;;11.20;99.90;;;;;;4996031;28;20299;-79
2023/06/03 03:54:07;;;;;;;10.57;8.17;;;11.20;99.90;;;;;;4990049;28;20980;-81
2023/06/03 03:56:34;;;;;;;10.40;7.63;;;11.20;99.90;;;;;;5011920;28;20207;-79
2023/06/03 03:59:05;;;;;;;11.23;7.80;;;11.20;99.90;;;;;;5006560;28;20674;-79
2023/06/03 04:01:40;;;;;;;11.47;7.90;;;11.30;99.90;;;;;;5005670;28;20199;-79
2023/06/03 04:04:31;;;;;;;9.00;6.73;;;11.40;99.90;;;;;;5005588;28;20241;-79
2023/06/03 04:06:58;;;;;;;10.80;6.63;;;11.50;99.90;;;;;;5009326;28;20199;-79
2023/06/03 04:09:25;;;;;;;8.03;6.23;;;11.60;99.90;;;;;;5004422;28;20592;-81
2023/06/03 04:11:51;;;;;;;6.37;5.70;;;11.60;99.90;;;;;;5003303;28;20212;-81
2023/06/03 04:14:44;;;;;;;8.03;6.10;;;11.60;99.90;;;;;;4994511;28;20330;-77
2023/06/03 04:17:13;;;;;;;7.27;5.83;;;11.70;99.90;;;;;;4986511;28;20200;-77
2023/06/03 04:19:42;;;;;;;7.70;6.67;;;11.70;99.90;;;;;;4986869;28;20196;-76
2023/06/03 04:22:20;;;;;;;9.90;6.70;;;11.80;99.90;;;;;;4994508;28;20690;-76
2023/06/03 04:24:47;;;;;;;10.07;6.40;;;11.90;99.90;;;;;;4985418;28;20208;-76
2023/06/03 04:27:14;;;;;;;9.03;7.60;;;11.90;99.90;;;;;;4991447;28;20200;-76
2023/06/03 04:29:43;;;;;;;8.83;6.73;;;12.00;99.90;;;;;;4991220;28;20582;-76
2023/06/03 04:32:10;;;;;;;9.27;7.47;;;12.10;99.90;;;;;;4990708;28;20308;-76
2023/06/03 04:34:49;;;;;;;9.87;7.13;;;12.20;99.90;;;;;;4990414;28;20227;-76
2023/06/03 04:37:16;;;;;;;8.50;6.97;;;12.30;99.90;;;;;;4987792;28;20214;-76
2023/06/03 04:39:44;;;;;;;6.90;6.20;;;12.40;99.90;;;;;;4985812;28;20201;-76
2023/06/03 04:42:12;;;;;;;9.70;6.30;;;12.70;99.90;;;;;;4987286;28;20236;-76
2023/06/03 04:44:40;;;;;;;10.27;6.80;;;12.80;99.90;;;;;;4975799;28;20221;-76
2023/06/03 04:47:10;;;;;;;9.33;6.70;;;12.90;99.90;;;;;;4999320;28;20268;-79
2023/06/03 04:49:39;;;;;;;7.40;6.60;;;13.10;99.90;;;;;;4996157;28;20225;-76
2023/06/03 04:52:09;;;;;;;7.97;5.90;;;13.60;99.90;;;;;;4997420;28;20209;-77
2023/06/03 04:54:41;;;;;;;9.00;6.27;;;14.40;99.90;;;;;;5002724;28;20241;-76
2023/06/03 04:57:08;;;;;;;8.43;6.07;;;15.00;99.90;;;;;;5005546;28;20204;-77
2023/06/03 04:59:35;;;;;;;8.60;5.80;;;15.20;99.90;;;;;;4996504;28;20415;-77
2023/06/03 05:02:08;;;;;;;8.33;6.33;;;15.10;99.90;;;;;;4998645;28;20268;-82
2023/06/03 05:04:37;;;;;;;7.83;5.83;;;14.90;99.90;;;;;;4998160;28;20732;-80
2023/06/03 05:07:05;;;;;;;8.00;6.03;;;14.80;99.90;;;;;;4992304;28;20252;-77
2023/06/03 05:09:32;;;;;;;8.63;6.33;;;14.70;99.90;;;;;;5004172;28;20201;-79
2023/06/03 05:11:59;;;;;;;8.47;5.73;;;14.70;99.90;;;;;;5007736;28;20774;-79
2023/06/03 05:14:26;;;;;;;7.70;5.50;;;14.80;99.90;;;;;;5001387;28;20222;-80
2023/06/03 05:16:53;;;;;;;9.23;5.93;;;14.90;99.90;;;;;;5002205;28;20732;-81
2023/06/03 05:19:20;;;;;;;8.73;5.70;;;15.10;99.90;;;;;;4997857;28;20197;-79
2023/06/03 05:21:48;;;;;;;7.57;5.83;;;15.30;99.90;;;;;;4997766;28;20197;-77
2023/06/03 05:24:17;;;;;;;10.37;6.27;;;15.40;99.90;;;;;;4995021;28;20247;-77
2023/06/03 05:26:43;;;;;;;6.60;4.77;;;15.40;99.90;;;;;;4990300;28;20201;-77
2023/06/03 05:29:10;;;;;;;8.60;5.43;;;15.30;99.90;;;;;;4991096;28;20213;-76
2023/06/03 05:31:37;;;;;;;9.53;4.83;;;15.40;99.90;;;;;;4996410;28;20200;-77
2023/06/03 05:34:05;;;;;;;12.67;5.30;;;15.50;99.90;;;;;;4989091;28;20241;-77
2023/06/03 05:36:32;;;;;;;9.23;5.00;;;15.50;99.90;;;;;;4992452;28;20201;-77
2023/06/03 05:39:03;;;;;;;6.70;4.77;;;15.70;99.90;;;;;;4992136;28;20573;-77
2023/06/03 05:41:30;;;;;;;6.93;5.27;;;16.00;99.90;;;;;;4998100;28;20270;-77
2023/06/03 05:43:57;;;;;;;6.33;4.43;;;16.40;99.90;;;;;;4999404;28;20256;-77
2023/06/03 05:46:24;;;;;;;8.77;5.13;;;16.80;99.90;;;;;;4998958;28;20205;-77
2023/06/03 05:48:51;;;;;;;9.27;5.73;;;17.20;99.90;;;;;;4999455;28;20200;-77
2023/06/03 05:51:19;;;;;;;14.13;5.63;;;17.70;99.90;;;;;;4998878;28;20212;-77
2023/06/03 05:53:46;;;;;;;9.27;5.20;;;18.00;99.90;;;;;;4994124;28;20224;-77
2023/06/03 05:56:19;;;;;;;7.77;4.90;;;18.40;99.90;;;;;;4993788;28;20201;-77
2023/06/03 05:58:47;;;;;;;9.00;5.33;;;18.80;99.90;;;;;;4998480;28;20193;-77
2023/06/03 06:01:15;;;;;;;7.30;4.53;;;19.00;99.90;;;;;;5000517;28;20226;-77
2023/06/03 06:03:43;;;;;;;11.63;5.40;;;19.40;99.90;;;;;;5000049;28;20213;-77
2023/06/03 06:06:12;;;;;;;7.00;4.63;;;19.30;99.90;;;;;;4993049;28;20202;-77
2023/06/03 06:08:39;;;;;;;8.87;4.70;;;19.70;99.90;;;;;;4994599;28;20205;-78
2023/06/03 06:11:05;;;;;;;9.63;4.97;;;19.80;99.90;;;;;;4994899;28;20211;-77
2023/06/03 06:13:34;;;;;;;9.23;4.90;;;19.80;99.90;;;;;;4998171;28;20217;-76
2023/06/03 06:16:02;;;;;;;8.37;5.03;;;20.10;99.90;;;;;;4996481;28;20201;-78
2023/06/03 06:18:30;;;;;;;7.73;4.60;;;20.10;99.90;;;;;;4993982;28;20217;-77
2023/06/03 06:20:58;;;;;;;8.33;4.60;;;20.00;99.90;;;;;;4996076;28;20202;-78
2023/06/03 06:23:25;;;;;;;10.97;5.40;;;20.20;99.90;;;;;;4995473;28;20220;-78
2023/06/03 06:25:55;;;;;;;7.83;4.47;;;20.40;99.90;;;;;;5000300;28;20201;-78
2023/06/03 06:28:27;;;;;;;8.73;5.17;;;20.50;99.90;;;;;;5000016;28;20683;-77
2023/06/03 06:31:02;;;;;;;7.20;5.00;;;20.60;99.90;;;;;;4995998;28;20265;-77
2023/06/03 06:33:31;;;;;;;8.53;5.00;;;20.80;99.90;;;;;;4994079;28;20232;-77
2023/06/03 06:35:58;;;;;;;9.50;5.40;;;20.70;99.90;;;;;;4994864;28;20189;-77
2023/06/03 06:38:25;;;;;;;10.23;6.00;;;20.80;99.90;;;;;;4997199;28;20201;-77
2023/06/03 06:40:52;;;;;;;8.53;4.97;;;20.90;99.90;;;;;;4997837;28;20727;-77
2023/06/03 06:43:25;;;;;;;8.63;5.03;;;20.80;99.90;;;;;;4996460;28;20229;-77
2023/06/03 06:45:59;;;;;;;10.50;4.93;;;21.30;99.90;;;;;;5001328;28;20578;-77
2023/06/03 06:48:26;;;;;;;10.33;5.07;;;21.60;99.90;;;;;;5003141;28;20273;-78
2023/06/03 06:50:59;;;;;;;7.80;4.67;;;21.90;99.90;;;;;;4995891;28;20197;-77
2023/06/03 06:53:34;;;;;;;7.73;4.93;;;21.70;99.90;;;;;;4994699;28;20233;-77
2023/06/03 06:56:07;;;;;;;10.27;5.10;;;21.60;99.90;;;;;;4998141;28;20212;-78
2023/06/03 06:58:47;;;;;;;9.53;4.93;;;21.40;99.90;;;;;;5001429;28;20272;-78
2023/06/03 07:01:16;;;;;;;10.57;4.37;;;21.70;99.90;;;;;;5003130;28;20197;-78
2023/06/03 07:03:46;;;;;;;9.40;5.00;;;21.60;99.90;;;;;;5000971;28;20209;-78
2023/06/03 07:06:14;;;;;;;11.13;4.50;;;22.10;99.90;;;;;;4994112;28;20206;-77
2023/06/03 07:08:42;;;;;;;8.33;4.40;;;22.40;99.90;;;;;;4994322;28;20256;-76
2023/06/03 07:11:10;;;;;;;8.60;4.80;;;22.50;99.90;;;;;;4997964;28;20224;-78
2023/06/03 07:13:41;;;;;;;12.90;5.00;;;22.80;99.90;;;;;;5000981;28;20233;-78
2023/06/03 07:16:09;;;;;;;12.07;5.00;;;23.00;99.90;;;;;;5005977;28;20231;-78
2023/06/03 07:18:38;;;;;;;9.70;4.70;;;23.10;99.90;;;;;;5001916;28;20285;-78
2023/06/03 07:21:05;;;;;;;8.37;4.80;;;23.40;99.90;;;;;;5001486;28;20599;-77
2023/06/03 07:23:33;;;;;;;8.73;4.37;;;23.50;99.90;;;;;;5001208;28;20339;-78
2023/06/03 07:26:00;;;;;;;6.90;3.80;;;23.50;99.90;;;;;;4992313;28;20201;-77
2023/06/03 07:28:32;;;;;;;6.77;4.57;;;23.50;99.90;;;;;;4989989;28;20343;-81
2023/06/03 07:31:07;;;;;;;10.10;4.93;;;23.90;99.90;;;;;;4997678;28;20196;-80
2023/06/03 07:33:37;;;;;;;9.43;5.00;;;24.10;99.90;;;;;;4997412;28;20225;-78
2023/06/03 07:36:05;;;;;;;6.17;4.37;;;24.20;99.90;;;;;;4988268;28;20247;-77
2023/06/03 07:38:57;;;;;;;8.50;5.30;;;23.90;99.90;;;;;;4995181;28;20329;-78
2023/06/03 07:41:41;;;;;;;9.77;5.03;;;23.90;99.90;;;;;;4991052;28;20206;-78
2023/06/03 07:44:16;;;;;;;9.70;4.73;;;23.70;99.90;;;;;;4994874;28;20228;-78
2023/06/03 07:46:45;;;;;;;11.20;5.23;;;23.50;99.90;;;;;;4996192;28;20240;-79
2023/06/03 07:49:13;;;;;;;7.60;4.60;;;23.80;99.90;;;;;;4997965;28;20591;-78
2023/06/03 07:51:44;;;;;;;7.33;4.70;;;24.10;99.90;;;;;;4993454;28;20205;-79
2023/06/03 07:54:12;;;;;;;9.40;5.10;;;24.10;99.90;;;;;;4993489;28;20229;-77
2023/06/03 07:56:38;;;;;;;8.87;5.20;;;24.40;99.90;;;;;;4993488;28;20221;-77
2023/06/03 07:59:07;;;;;;;7.03;4.50;;;24.30;99.90;;;;;;4995920;28;20209;-77
2023/06/03 08:01:35;;;;;;;9.70;4.60;;;24.50;99.90;;;;;;4995284;28;20193;-77
2023/06/03 08:04:04;;;;;;;8.13;5.20;;;24.40;99.90;;;;;;4992824;28;20288;-77
2023/06/03 08:06:32;;;;;;;8.13;6.27;;;24.60;99.90;;;;;;4994226;28;20750;-79
2023/06/03 08:09:00;;;;;;;10.40;7.00;;;24.30;99.90;;;;;;4989136;28;20201;-79
2023/06/03 08:11:27;;;;;;;8.17;6.50;;;24.50;99.90;;;;;;4991401;28;20229;-77
2023/06/03 08:13:56;;;;;;;9.80;6.20;;;24.90;99.90;;;;;;4984739;28;20221;-76
2023/06/03 08:16:22;;;;;;;11.87;6.50;;;25.00;99.90;;;;;;4990077;28;20307;-77
2023/06/03 08:18:54;;;;;;;9.50;5.10;;;24.90;99.90;;;;;;4992644;28;20210;-77
2023/06/03 08:21:27;;;;;;;7.77;5.60;;;24.80;99.90;;;;;;4995606;28;20236;-77
2023/06/03 08:23:54;;;;;;;9.57;6.03;;;24.80;99.90;;;;;;4993535;28;20217;-77
2023/06/03 08:26:22;;;;;;;11.30;7.37;;;24.40;99.90;;;;;;4997806;28;20567;-77
2023/06/03 08:28:49;;;;;;;9.43;6.50;;;24.60;99.90;;;;;;4998363;28;20201;-77
2023/06/03 08:31:16;;;;;;;9.30;6.40;;;25.10;99.90;;;;;;4999316;28;20205;-77
2023/06/03 08:33:42;;;;;;;9.00;6.23;;;25.10;99.90;;;;;;4997694;28;20687;-77
2023/06/03 08:36:11;;;;;;;10.53;6.93;;;25.60;99.90;;;;;;4998157;28;20228;-77
2023/06/03 08:38:39;;;;;;;11.63;7.27;;;25.50;99.90;;;;;;4997273;28;20672;-77
2023/06/03 08:41:07;;;;;;;10.23;6.97;;;25.70;99.90;;;;;;4998800;28;20206;-77
2023/06/03 08:43:43;;;;;;;8.50;7.37;;;25.50;99.90;;;;;;5000793;28;20221;-79
2023/06/03 08:46:19;;;;;;;9.60;4.87;;;24.90;99.90;;;;;;4999833;28;20645;-79
2023/06/03 08:48:57;;;;;;;6.47;4.00;;;24.90;99.90;;;;;;5002337;28;20256;-80
2023/06/03 08:51:24;;;;;;;12.03;5.20;;;25.40;99.90;;;;;;5001022;28;20810;-80
2023/06/03 08:53:52;;;;;;;15.47;4.77;;;25.30;99.90;;;;;;4993056;28;20217;-78
2023/06/03 08:56:20;;;;;;;9.67;5.10;;;25.70;99.90;;;;;;4995308;28;20204;-75
2023/06/03 08:58:52;;;;;;;8.73;5.13;;;25.80;99.90;;;;;;4993778;28;20198;-75
2023/06/03 09:01:22;;;;;;;10.60;7.83;;;26.10;99.90;;;;;;4996043;28;20260;-77
2023/06/03 09:03:53;;;;;;;10.33;6.47;;;25.90;99.90;;;;;;4996431;28;20220;-76
2023/06/03 09:06:19;;;;;;;10.63;6.90;;;25.70;99.90;;;;;;4996456;28;20225;-77
2023/06/03 09:08:50;;;;;;;10.23;6.77;;;26.00;99.90;;;;;;4995764;28;20204;-77
2023/06/03 09:11:17;;;;;;;7.93;6.70;;;26.10;99.90;;;;;;4996897;28;20575;-77
2023/06/03 09:13:46;;;;;;;13.47;8.07;;;26.00;99.90;;;;;;4989394;28;20219;-77
2023/06/03 09:16:14;;;;;;;8.73;6.87;;;26.00;99.90;;;;;;4993864;28;20304;-76
2023/06/03 09:18:41;;;;;;;10.63;6.80;;;26.00;99.70;;;;;;4995706;28;20204;-78
2023/06/03 09:21:10;;;;;;;8.43;7.67;;;25.80;99.90;;;;;;5004536;28;20205;-78
2023/06/03 09:23:38;;;;;;;11.13;7.70;;;26.40;99.90;;;;;;5000072;28;20311;-79
2023/06/03 09:26:06;;;;;;;10.10;7.83;;;26.60;99.90;;;;;;4999513;28;20224;-79
2023/06/03 09:28:34;;;;;;;8.77;7.73;;;26.80;99.90;;;;;;4998842;28;20710;-79
2023/06/03 09:31:01;;;;;;;10.90;7.00;;;26.70;99.80;;;;;;4999847;28;20262;-78
2023/06/03 09:33:30;;;;;;;10.87;8.37;;;27.00;99.80;;;;;;4997725;28;20451;-78
2023/06/03 09:36:10;;;;;;;9.53;6.83;;;26.50;99.20;;;;;;4989879;28;20275;-80
2023/06/03 09:38:50;;;;;;;8.43;7.57;;;26.60;99.90;;;;;;4993031;28;20272;-81
2023/06/03 09:41:18;;;;;;;10.07;9.20;;;26.80;99.00;;;;;;4993856;28;20672;-80
2023/06/03 09:43:55;;;;;;;8.10;6.70;;;26.70;99.60;;;;;;4996065;28;20649;-81
2023/06/03 09:46:23;;;;;;;11.67;7.37;;;27.20;99.70;;;;;;4994088;28;20208;-81
2023/06/03 09:48:51;;;;;;;10.97;7.50;;;27.20;99.30;;;;;;4994371;28;20197;-81
2023/06/03 09:51:18;;;;;;;6.93;4.47;;;27.30;98.40;;;;;;4998108;28;20440;-82
2023/06/03 09:53:45;;;;;;;8.60;4.53;;;27.20;99.60;;;;;;4995348;28;20468;-79
2023/06/03 09:56:22;;;;;;;12.30;7.13;;;27.40;98.90;;;;;;4988886;28;20216;-80
2023/06/03 09:58:51;;;;;;;8.87;7.20;;;27.40;98.90;;;;;;4994838;28;20215;-78
2023/06/03 10:01:30;;;;;;;8.13;7.33;;;26.90;99.90;;;;;;4995857;28;20220;-79
2023/06/03 10:04:01;;;;;;;10.63;7.87;;;26.90;99.90;;;;;;4995214;28;20782;-79
2023/06/03 10:06:28;;;;;;;12.20;7.87;;;27.20;99.10;;;;;;4985648;28;20201;-78
2023/06/03 10:08:55;;;;;;;8.80;7.00;;;27.20;99.90;;;;;;4995593;28;20193;-78
2023/06/03 10:11:24;;;;;;;8.53;7.50;;;27.40;99.50;;;;;;4990898;28;20201;-78
2023/06/03 10:14:05;;;;;;;10.60;7.87;;;27.50;98.80;;;;;;4992092;28;20810;-79
2023/06/03 10:16:32;;;;;;;11.30;6.63;;;27.30;99.50;;;;;;4999365;28;20219;-78
2023/06/03 10:18:59;;;;;;;7.00;4.87;;;27.00;98.20;;;;;;4995993;28;20201;-78
2023/06/03 10:21:30;;;;;;;10.03;6.43;;;27.00;99.90;;;;;;4992000;28;20252;-78
2023/06/03 10:24:00;;;;;;;9.60;7.53;;;26.90;98.70;;;;;;4995843;28;20243;-77
2023/06/03 10:26:27;;;;;;;10.77;7.47;;;26.90;99.90;;;;;;4993577;28;20233;-78
2023/06/03 10:28:55;;;;;;;7.57;5.00;;;26.70;99.40;;;;;;4990664;28;20263;-78
2023/06/03 10:31:24;;;;;;;7.97;4.90;;;26.50;99.90;;;;;;4999329;28;20667;-78
2023/06/03 10:33:52;;;;;;;9.50;6.70;;;26.50;99.90;;;;;;4993552;28;20613;-78
2023/06/03 10:36:20;;;;;;;11.17;7.50;;;26.60;99.90;;;;;;4995289;28;20707;-79
2023/06/03 10:38:48;;;;;;;9.53;8.53;;;26.30;99.40;;;;;;4997607;28;20687;-78
2023/06/03 10:41:15;;;;;;;13.47;8.93;;;26.00;99.90;;;;;;4991645;28;20198;-79
2023/06/03 10:43:43;;;;;;;8.47;7.67;;;26.10;99.90;;;;;;4997734;28;20248;-77
2023/06/03 10:46:12;;;;;;;8.73;5.03;;;26.20;99.80;;;;;;4994310;28;20220;-78
2023/06/03 10:48:39;;;;;;;9.93;7.73;;;26.10;99.90;;;;;;4994918;28;20213;-77
2023/06/03 10:51:20;;;;;;;8.83;7.00;;;26.00;99.90;;;;;;4995533;28;20695;-77
2023/06/03 10:54:05;;;;;;;11.90;8.50;;;25.80;99.90;;;;;;4994895;28;20219;-79
2023/06/03 10:56:36;;;;;;;9.90;7.83;;;25.40;99.90;;;;;;4995794;28;20208;-77
2023/06/03 10:59:05;;;;;;;9.90;8.50;;;25.40;99.90;;;;;;4994943;28;20806;-80
2023/06/03 11:01:58;;;;;;;9.47;8.13;;;25.40;99.90;;;;;;4992806;28;20325;-78
2023/06/03 11:04:25;;;;;;;8.40;7.53;;;25.60;99.90;;;;;;4990629;28;20217;-78
2023/06/03 11:06:52;;;;;;;7.63;4.80;;;25.80;99.90;;;;;;4988725;28;20434;-77
2023/06/03 11:09:34;;;;;;;8.73;7.87;;;26.00;99.90;;;;;;4994347;28;20201;-78
2023/06/03 11:12:13;;;;;;;6.97;5.43;;;26.40;99.90;;;;;;4984182;28;20209;-78
2023/06/03 11:14:56;;;;;;;8.25;5.43;;;26.30;99.90;;;;;;4993504;28;20440;-78
2023/06/03 11:17:26;;;;;;;8.80;5.67;;;26.00;99.90;;;;;;4988155;28;20204;-80
2023/06/03 11:19:57;;;;;;;10.37;5.70;;;25.80;99.90;;;;;;4997016;28;20276;-77
2023/06/03 11:22:41;;;;;;;8.03;5.40;;;25.40;99.60;;;;;;4993735;28;20253;-77
2023/06/03 11:25:26;;;;;;;8.95;6.07;;;25.10;99.90;;;;;;4981462;28;20440;-78
2023/06/03 11:27:53;;;;;;;10.30;5.50;;;25.10;99.90;;;;;;4994653;28;20251;-78
2023/06/03 11:30:20;;;;;;;11.07;6.27;;;25.20;99.90;;;;;;4993241;28;20233;-78
2023/06/03 11:33:10;;;;;;;8.70;5.27;;;25.30;99.90;;;;;;4992926;28;20217;-77
2023/06/03 11:35:37;;;;;;;6.23;4.93;;;25.50;99.90;;;;;;4994094;28;20231;-78
2023/06/03 11:38:03;;;;;;;7.23;5.87;;;25.70;99.90;;;;;;4994640;28;20205;-78
2023/06/03 11:40:44;;;;;;;8.90;7.93;;;25.80;99.90;;;;;;4987701;28;20205;-78
2023/06/03 11:43:11;;;;;;;11.03;5.63;;;26.00;99.90;;;;;;4990260;28;20233;-80
2023/06/03 11:45:38;;;;;;;12.97;5.43;;;26.30;99.90;;;;;;4992337;28;20185;-78
2023/06/03 11:48:07;;;;;;;7.17;5.47;;;26.20;99.90;;;;;;4994048;28;20680;-77
2023/06/03 11:50:50;;;;;;;8.10;6.57;;;26.10;99.90;;;;;;4989210;28;20239;-78
2023/06/03 11:53:33;;;;;;;10.10;6.03;;;25.50;99.90;;;;;;4986718;28;20877;-77
2023/06/03 11:56:09;;;;;;;8.87;7.60;;;25.40;99.90;;;;;;4993648;28;20669;-78
2023/06/03 11:58:39;;;;;;;8.27;5.80;;;25.30;99.90;;;;;;4994532;28;20568;-77
2023/06/03 12:01:09;;;;;;;9.30;5.27;;;25.40;99.90;;;;;;4994746;28;20225;-77
2023/06/03 12:03:37;;;;;;;7.60;6.03;;;25.50;99.90;;;;;;4993877;28;20657;-77
2023/06/03 12:06:05;;;;;;;9.77;6.73;;;25.40;99.90;;;;;;4990920;28;20201;-77
2023/06/03 12:08:46;;;;;;;8.53;7.30;;;25.00;99.90;;;;;;4983173;28;20286;-77
2023/06/03 12:11:30;;;;;;;6.40;5.10;;;25.30;99.90;;;;;;4987100;28;20259;-80
2023/06/03 12:13:57;;;;;;;8.13;5.10;;;25.40;99.90;;;;;;4974203;28;22012;-79
2023/06/03 12:16:29;;;;;;;10.50;5.80;;;25.50;99.90;;;;;;4989638;28;20288;-79
2023/06/03 12:18:56;;;;;;;8.40;5.50;;;25.40;99.90;;;;;;4992529;28;20255;-79
2023/06/03 12:21:23;;;;;;;11.07;5.73;;;25.30;99.90;;;;;;4993359;28;20232;-79
2023/06/03 12:23:50;;;;;;;6.73;5.23;;;25.40;99.90;;;;;;4992476;28;20244;-79
2023/06/03 12:26:17;;;;;;;9.70;7.13;;;25.40;99.90;;;;;;4992303;28;20240;-80
2023/06/03 12:28:46;;;;;;;9.13;5.97;;;25.30;99.80;;;;;;4995731;28;20777;-80
2023/06/03 12:31:14;;;;;;;10.63;7.67;;;25.30;99.40;;;;;;4977061;28;20253;-79
2023/06/03 12:33:41;;;;;;;8.60;7.67;;;25.30;99.90;;;;;;5001254;28;20312;-79
2023/06/03 12:36:09;;;;;;;8.63;6.13;;;25.40;99.60;;;;;;4983390;28;20217;-81
2023/06/03 12:38:53;;;;;;;7.10;6.20;;;25.40;99.80;;;;;;4986171;28;20220;-80
2023/06/03 12:41:20;;;;;;;8.27;6.10;;;25.60;99.90;;;;;;4991559;28;20240;-80
2023/06/03 12:43:50;;;;;;;8.43;5.73;;;25.80;99.90;;;;;;4992298;28;20737;-80
2023/06/03 12:46:18;;;;;;;11.07;6.00;;;26.00;98.20;;;;;;4990117;28;20208;-81
2023/06/03 12:48:45;;;;;;;9.03;6.40;;;25.90;98.60;;;;;;4990314;28;20198;-80
2023/06/03 12:51:26;;;;;;;9.77;6.40;;;25.60;99.40;;;;;;4990161;28;20284;-80
2023/06/03 12:53:56;;;;;;;6.23;5.63;;;25.30;99.90;;;;;;4992571;28;20236;-79
2023/06/03 12:56:24;;;;;;;8.40;6.53;;;25.00;99.50;;;;;;4991718;28;20703;-80